This is the latest recevied weather packets stored in our database for station/object K7RAP. If no packets are shown the sender has not sent any weather packets the latest 10 day(s).
| Time | Temp. | Humidity | Pressure | Rain* | Wind** | Luminosity | Snow |
|---|---|---|---|---|---|---|---|
| 1777606804 | 18.89° C | 64% | 1013.5 hPa | - | - | - | - |
| 1777606204 | 20° C | 62% | 1013.5 hPa | - | - | - | - |
| 1777605603 | 20° C | 62% | 1013.5 hPa | - | - | - | - |
| 1777605003 | 20.56° C | 59% | 1013.2 hPa | - | - | - | - |
| 1777604404 | 21.67° C | 55% | 1012.9 hPa | - | - | - | - |
| 1777603804 | 21.67° C | 55% | 1012.9 hPa | - | - | - | - |
| 1777603203 | 22.22° C | 50% | 1012.9 hPa | - | - | - | - |
| 1777602603 | 22.78° C | 45% | 1012.9 hPa | - | - | - | - |
| 1777602003 | 22.78° C | 45% | 1012.9 hPa | - | - | - | - |
| 1777601403 | 23.33° C | 42% | 1012.9 hPa | - | - | - | - |
| 1777600804 | 24.44° C | 38% | 1012.5 hPa | - | - | - | - |
| 1777600204 | 24.44° C | 38% | 1012.5 hPa | - | - | - | - |
| 1777599603 | 24.44° C | 38% | 1012.9 hPa | - | - | - | - |
| 1777599005 | 26.11° C | 33% | 1012.9 hPa | - | - | - | - |
| 1777598403 | 26.11° C | 33% | 1012.9 hPa | - | - | - | - |
| 1777597803 | 26.67° C | 30% | 1012.9 hPa | - | - | - | - |
| 1777597205 | 26.67° C | 36% | 1013.2 hPa | - | - | - | - |
| 1777596604 | 26.67° C | 36% | 1013.2 hPa | - | - | - | - |
| 1777596004 | 26.67° C | 32% | 1013.2 hPa | - | - | - | - |
| 1777595403 | 27.78° C | 32% | 1013.2 hPa | - | - | - | - |
| 1777594803 | 27.78° C | 32% | 1013.2 hPa | - | - | - | - |
| 1777594203 | 27.78° C | 29% | 1013.5 hPa | - | - | - | - |
| 1777410004 | 13.33° C | 67% | 1022.7 hPa | - | - | - | - |
| 1777409403 | 13.33° C | 67% | 1022.7 hPa | - | - | - | - |
| 1777408803 | 13.33° C | 67% | 1022.7 hPa | - | - | - | - |
* Rain since midnight (hover to see other rain measurements)
** Current wind speed in m/s (hover to see current wind gust speed)